createdAt,value
2022-10-31T00:01:34.763Z,17.80
2022-10-31T00:04:01.973Z,16.42
2022-10-31T00:06:29.309Z,16.20
2022-10-31T00:09:02.502Z,19.75
2022-10-31T00:11:29.817Z,18.92
2022-10-31T00:13:59.658Z,18.25
2022-10-31T00:16:28.179Z,15.65
2022-10-31T00:19:01.594Z,20.52
2022-10-31T00:21:29.935Z,18.52
2022-10-31T00:23:58.583Z,18.17
2022-10-31T00:26:25.682Z,16.58
2022-10-31T00:28:52.465Z,16.40
2022-10-31T00:31:19.347Z,16.80
2022-10-31T00:33:46.191Z,18.38
2022-10-31T00:36:19.346Z,17.02
2022-10-31T00:38:47.464Z,19.63
2022-10-31T00:41:17.169Z,16.52
2022-10-31T00:43:44.785Z,16.95
2022-10-31T00:46:13.551Z,18.42
2022-10-31T00:48:40.430Z,16.92
2022-10-31T00:51:07.592Z,18.55
2022-10-31T00:53:34.535Z,16.63
2022-10-31T00:56:01.238Z,18.17
2022-10-31T00:58:28.272Z,16.30
2022-10-31T01:00:57.794Z,17.02
2022-10-31T01:03:27.793Z,15.20
2022-10-31T01:06:10.331Z,15.77
2022-10-31T01:08:38.569Z,16.42
2022-10-31T01:11:14.173Z,16.75
2022-10-31T01:13:41.673Z,14.95
2022-10-31T01:16:12.909Z,14.02
2022-10-31T01:18:39.993Z,16.65
2022-10-31T01:21:12.193Z,18.30
2022-10-31T01:23:39.656Z,12.30
2022-10-31T01:26:11.770Z,13.57
2022-10-31T01:28:46.593Z,13.90
2022-10-31T01:31:13.922Z,13.23
2022-10-31T01:33:40.942Z,12.25
2022-10-31T01:36:21.127Z,11.68
2022-10-31T01:38:49.352Z,14.35
2022-10-31T01:41:23.670Z,14.30
2022-10-31T01:44:00.195Z,14.07
2022-10-31T01:46:33.880Z,12.65
2022-10-31T01:49:06.837Z,12.80
2022-10-31T01:51:39.672Z,13.97
2022-10-31T01:54:14.932Z,15.27
2022-10-31T01:56:47.454Z,13.48
2022-10-31T01:59:19.042Z,15.32
2022-10-31T02:01:47.198Z,14.65
2022-10-31T02:04:15.923Z,12.35
2022-10-31T02:06:52.035Z,13.07
2022-10-31T02:09:24.433Z,15.52
2022-10-31T02:11:58.289Z,13.13
2022-10-31T02:16:55.837Z,13.35
2022-10-31T02:19:48.919Z,12.43
2022-10-31T02:23:00.449Z,11.60
2022-10-31T02:26:14.744Z,12.98
2022-10-31T02:29:03.429Z,13.20
2022-10-31T02:31:57.584Z,10.63
2022-10-31T02:34:42.816Z,10.30
2022-10-31T02:37:24.787Z,13.75
2022-10-31T02:40:14.860Z,12.85
2022-10-31T02:43:04.129Z,11.57
2022-10-31T02:46:00.853Z,11.40
2022-10-31T02:48:36.910Z,9.90
2022-10-31T02:51:05.994Z,9.85
2022-10-31T02:53:35.107Z,11.00
2022-10-31T02:56:17.780Z,12.63
2022-10-31T02:59:00.877Z,11.60
2022-10-31T03:02:04.659Z,11.23
2022-10-31T03:04:58.233Z,11.80
2022-10-31T03:07:44.044Z,10.05
2022-10-31T03:10:47.275Z,12.27
2022-10-31T03:13:52.012Z,10.07
2022-10-31T03:19:06.187Z,9.52
2022-10-31T03:21:46.672Z,7.93
2022-10-31T03:24:15.658Z,12.02
2022-10-31T03:26:57.431Z,12.38
2022-10-31T03:29:31.124Z,10.48
2022-10-31T03:32:14.487Z,11.18
2022-10-31T03:34:47.253Z,10.00
2022-10-31T03:37:19.731Z,11.80
2022-10-31T03:39:49.626Z,10.65
2022-10-31T03:42:33.415Z,13.82
2022-10-31T03:45:15.481Z,12.05
2022-10-31T03:47:44.684Z,11.45
2022-10-31T03:50:16.176Z,12.55
2022-10-31T03:53:11.604Z,12.50
2022-10-31T03:55:50.612Z,11.05
2022-10-31T03:58:38.491Z,12.80
2022-10-31T04:01:11.027Z,13.07
2022-10-31T04:03:39.710Z,11.57
2022-10-31T04:06:14.707Z,10.23
2022-10-31T04:08:58.070Z,11.13
2022-10-31T04:11:32.033Z,10.50
2022-10-31T04:14:02.591Z,8.10
2022-10-31T04:16:29.833Z,14.20
2022-10-31T04:18:57.171Z,11.23
2022-10-31T04:21:31.486Z,9.93
2022-10-31T04:23:58.724Z,10.35
2022-10-31T04:26:25.782Z,11.10
2022-10-31T04:28:52.590Z,11.18
2022-10-31T04:31:19.514Z,11.10
2022-10-31T04:33:46.628Z,9.88
2022-10-31T04:36:13.792Z,10.40
2022-10-31T04:38:41.584Z,10.10
2022-10-31T04:41:08.502Z,9.82
2022-10-31T04:43:35.215Z,9.38
2022-10-31T04:46:02.009Z,9.98
2022-10-31T04:48:29.059Z,10.38
2022-10-31T04:51:01.506Z,9.20
2022-10-31T04:53:29.218Z,16.33
2022-10-31T04:55:58.434Z,11.75
2022-10-31T04:58:25.155Z,10.90
2022-10-31T05:00:56.690Z,11.07
2022-10-31T05:03:23.447Z,10.18
2022-10-31T05:05:50.372Z,8.32
2022-10-31T05:08:17.191Z,11.30
2022-10-31T05:10:43.926Z,13.27
2022-10-31T05:13:11.639Z,9.70
2022-10-31T05:15:38.471Z,9.07
2022-10-31T05:18:05.270Z,10.18
2022-10-31T05:20:32.330Z,9.73
2022-10-31T05:23:00.365Z,10.68
2022-10-31T05:25:29.817Z,11.45
2022-10-31T05:27:58.391Z,11.52
2022-10-31T05:30:30.593Z,8.85
2022-10-31T05:32:58.093Z,8.73
2022-10-31T05:35:32.405Z,12.48
2022-10-31T05:37:59.690Z,10.77
2022-10-31T05:40:28.584Z,11.55
2022-10-31T05:42:59.504Z,10.57
2022-10-31T05:45:27.488Z,9.45
2022-10-31T05:47:58.243Z,10.00
2022-10-31T05:50:27.446Z,9.73
2022-10-31T05:53:06.570Z,10.02
2022-10-31T05:55:33.896Z,11.43
2022-10-31T05:58:01.429Z,12.00
2022-10-31T06:00:29.273Z,10.05
2022-10-31T06:03:01.247Z,10.98
2022-10-31T06:05:29.517Z,13.18
2022-10-31T06:07:57.222Z,11.88
2022-10-31T06:10:25.463Z,12.88
2022-10-31T06:12:52.357Z,10.10
2022-10-31T06:15:23.679Z,14.23
2022-10-31T06:18:04.658Z,10.90
2022-10-31T06:20:33.002Z,11.82
2022-10-31T06:23:00.138Z,10.05
2022-10-31T06:25:27.762Z,12.43
2022-10-31T06:27:55.598Z,10.73
2022-10-31T06:30:22.422Z,10.10
2022-10-31T06:32:50.473Z,10.45
2022-10-31T06:35:18.045Z,10.93
2022-10-31T06:37:53.060Z,11.05
2022-10-31T06:40:20.070Z,12.23
2022-10-31T06:42:46.778Z,10.93
2022-10-31T06:45:13.819Z,13.30
2022-10-31T06:47:56.822Z,11.40
2022-10-31T06:50:28.169Z,12.32
2022-10-31T06:52:58.480Z,13.52
2022-10-31T06:55:27.887Z,11.00
2022-10-31T06:58:01.916Z,15.00
2022-10-31T07:00:31.932Z,10.38
2022-10-31T07:03:02.232Z,11.02
2022-10-31T07:05:30.395Z,11.15
2022-10-31T07:08:01.475Z,13.18
2022-10-31T07:10:33.185Z,12.93
2022-10-31T07:13:06.323Z,11.90
2022-10-31T07:15:40.101Z,14.00
2022-10-31T07:18:09.836Z,15.68
2022-10-31T07:20:36.800Z,14.50
2022-10-31T07:23:05.269Z,14.93
2022-10-31T07:25:32.429Z,12.13
2022-10-31T07:27:59.656Z,13.57
2022-10-31T07:30:26.689Z,16.92
2022-10-31T07:32:53.521Z,16.52
2022-10-31T07:35:24.618Z,14.73
2022-10-31T07:37:51.870Z,13.75
2022-10-31T07:40:20.486Z,17.33
2022-10-31T07:42:51.572Z,13.73
2022-10-31T07:45:22.119Z,16.98
2022-10-31T07:47:52.191Z,18.27
2022-10-31T07:50:26.213Z,18.58
2022-10-31T07:53:05.731Z,23.23
2022-10-31T07:55:34.357Z,16.23
2022-10-31T07:58:07.860Z,19.60
2022-10-31T08:00:37.154Z,16.00
2022-10-31T08:03:13.312Z,15.48
2022-10-31T08:05:41.952Z,14.18
2022-10-31T08:08:09.850Z,17.67
2022-10-31T08:10:37.255Z,17.65
2022-10-31T08:13:12.736Z,20.75
2022-10-31T08:15:42.421Z,15.73
2022-10-31T08:18:16.381Z,17.80
2022-10-31T08:20:44.417Z,18.80
2022-10-31T08:23:13.112Z,17.52
2022-10-31T08:25:40.399Z,17.58
2022-10-31T08:28:09.504Z,21.17
2022-10-31T08:30:38.977Z,18.48
2022-10-31T08:33:13.476Z,18.70
2022-10-31T08:35:41.349Z,17.42
2022-10-31T08:38:11.771Z,19.27
2022-10-31T08:40:39.568Z,14.18
2022-10-31T08:43:12.633Z,18.77
2022-10-31T08:45:39.975Z,12.88
2022-10-31T08:48:12.529Z,14.50
2022-10-31T08:50:40.548Z,18.85
2022-10-31T08:53:14.119Z,20.42
2022-10-31T08:55:43.479Z,14.60
2022-10-31T08:58:19.857Z,17.95
2022-10-31T09:00:50.999Z,16.15
2022-10-31T09:03:27.959Z,18.50
2022-10-31T09:06:00.996Z,18.00
2022-10-31T09:08:31.314Z,14.35
2022-10-31T09:10:59.004Z,15.40
2022-10-31T09:13:28.105Z,13.13
2022-10-31T09:15:57.886Z,16.73
2022-10-31T09:18:25.431Z,15.52
2022-10-31T09:20:52.370Z,17.90
2022-10-31T09:23:23.483Z,17.52
2022-10-31T09:25:53.397Z,17.85
2022-10-31T09:28:24.202Z,18.38
2022-10-31T09:30:53.726Z,19.88
2022-10-31T09:33:21.580Z,19.15
2022-10-31T09:35:48.591Z,21.23
2022-10-31T09:38:23.311Z,17.40
2022-10-31T09:41:08.966Z,19.85
2022-10-31T09:44:16.327Z,16.40
2022-10-31T09:46:55.174Z,16.60
2022-10-31T09:50:03.227Z,19.02
2022-10-31T09:52:36.801Z,19.92
2022-10-31T09:55:27.812Z,17.73
2022-10-31T09:57:54.974Z,16.75
2022-10-31T10:00:23.577Z,19.92
2022-10-31T10:03:17.785Z,20.20
2022-10-31T10:05:52.181Z,18.55
2022-10-31T10:08:27.799Z,20.85
2022-10-31T10:11:33.164Z,18.73
2022-10-31T10:14:17.063Z,23.00
2022-10-31T10:17:23.075Z,21.35
2022-10-31T10:20:26.385Z,18.15
2022-10-31T10:23:30.755Z,20.63
2022-10-31T10:26:16.508Z,18.10
2022-10-31T10:28:49.767Z,17.88
2022-10-31T10:31:24.298Z,21.55
2022-10-31T10:34:24.022Z,15.95
2022-10-31T10:37:05.436Z,16.65
2022-10-31T10:39:46.464Z,16.40
2022-10-31T10:42:34.914Z,16.98
2022-10-31T10:45:37.238Z,14.98
2022-10-31T10:48:22.549Z,19.02
2022-10-31T10:50:52.418Z,17.25
2022-10-31T10:54:14.661Z,15.57
2022-10-31T10:56:59.608Z,13.93
2022-10-31T10:59:27.779Z,15.77
2022-10-31T11:01:54.699Z,15.45
2022-10-31T11:04:45.042Z,18.23
2022-10-31T11:07:12.650Z,16.10
2022-10-31T11:09:39.725Z,15.05
2022-10-31T11:12:20.413Z,17.20
2022-10-31T11:14:56.919Z,17.40
2022-10-31T11:17:55.346Z,19.23
2022-10-31T11:20:29.403Z,17.08
2022-10-31T11:23:06.380Z,16.83
2022-10-31T11:25:33.447Z,16.63
2022-10-31T11:28:20.723Z,17.35
2022-10-31T11:30:59.455Z,15.98
2022-10-31T11:33:39.326Z,18.67
2022-10-31T11:36:30.149Z,16.63
2022-10-31T11:38:57.257Z,18.17
2022-10-31T11:41:34.765Z,18.30
2022-10-31T11:44:18.783Z,17.65
2022-10-31T11:49:39.514Z,13.80
2022-10-31T11:52:16.166Z,17.08
2022-10-31T11:54:55.362Z,20.73
2022-10-31T11:57:42.782Z,20.85
2022-10-31T12:00:30.415Z,18.80
2022-10-31T12:03:11.935Z,21.67
2022-10-31T12:05:42.784Z,16.90
2022-10-31T12:08:14.122Z,20.40
2022-10-31T12:10:52.921Z,16.23
2022-10-31T12:13:42.053Z,21.55
2022-10-31T12:16:43.145Z,21.35
2022-10-31T12:19:34.568Z,20.17
2022-10-31T12:22:10.320Z,16.05
2022-10-31T12:24:55.519Z,20.10
2022-10-31T12:28:13.848Z,16.45
2022-10-31T12:31:21.344Z,18.02
2022-10-31T12:34:28.837Z,18.17
2022-10-31T12:37:16.663Z,18.00
2022-10-31T12:39:55.854Z,19.73
2022-10-31T12:42:45.559Z,20.67
2022-10-31T12:45:52.211Z,17.77
2022-10-31T12:48:55.472Z,19.02
2022-10-31T12:51:57.720Z,20.63
2022-10-31T12:55:18.027Z,16.88
2022-10-31T12:57:51.986Z,17.77
2022-10-31T13:00:21.061Z,16.70
2022-10-31T13:03:26.177Z,16.45
2022-10-31T13:05:59.808Z,18.45
2022-10-31T13:09:00.491Z,16.60
2022-10-31T13:11:38.818Z,17.45
2022-10-31T13:14:56.514Z,14.35
2022-10-31T13:17:42.294Z,17.25
2022-10-31T13:20:31.166Z,16.95
2022-10-31T13:23:49.986Z,18.13
2022-10-31T13:26:37.258Z,16.48
2022-10-31T13:29:13.125Z,15.80
2022-10-31T13:31:44.020Z,16.67
2022-10-31T13:34:24.470Z,17.90
2022-10-31T13:37:40.221Z,18.10
2022-10-31T13:40:31.622Z,18.50
2022-10-31T13:43:20.982Z,15.68
2022-10-31T13:45:54.394Z,17.98
2022-10-31T13:48:40.164Z,15.45
2022-10-31T13:51:10.638Z,16.88
2022-10-31T13:53:52.478Z,16.77
2022-10-31T13:56:28.717Z,18.90
2022-10-31T13:59:20.561Z,16.15
2022-10-31T14:01:52.416Z,14.35
2022-10-31T14:04:25.846Z,16.52
2022-10-31T14:09:54.459Z,14.75
2022-10-31T14:12:37.132Z,13.85
2022-10-31T14:15:21.183Z,14.05
2022-10-31T14:20:19.098Z,13.85
2022-10-31T14:22:46.119Z,15.25
2022-10-31T14:25:36.180Z,16.45
2022-10-31T14:28:34.505Z,15.45
2022-10-31T14:31:02.697Z,17.02
2022-10-31T14:33:31.854Z,14.63
2022-10-31T14:36:20.154Z,16.50
2022-10-31T14:39:19.156Z,15.07
2022-10-31T14:42:09.658Z,15.63
2022-10-31T14:44:49.089Z,17.50
2022-10-31T14:48:06.773Z,18.35
2022-10-31T14:51:13.490Z,19.52
2022-10-31T14:53:56.287Z,17.75
2022-10-31T14:56:30.645Z,22.42
2022-10-31T14:59:04.006Z,25.13
2022-10-31T15:01:38.965Z,21.67
2022-10-31T15:04:25.152Z,21.90
2022-10-31T15:07:20.433Z,20.92
2022-10-31T15:10:07.928Z,22.42
2022-10-31T15:12:39.477Z,20.23
2022-10-31T15:15:16.146Z,19.83
2022-10-31T15:17:50.200Z,20.35
2022-10-31T15:20:25.485Z,21.60
2022-10-31T15:22:52.386Z,21.23
2022-10-31T15:25:25.920Z,22.23
2022-10-31T15:27:54.147Z,23.95
2022-10-31T15:30:27.708Z,23.42
2022-10-31T15:32:58.557Z,21.25
2022-10-31T15:35:31.427Z,22.08
2022-10-31T15:38:00.534Z,21.10
2022-10-31T15:40:29.224Z,22.38
2022-10-31T15:43:01.960Z,22.80
2022-10-31T15:45:31.209Z,22.25
2022-10-31T15:48:17.733Z,23.92
2022-10-31T15:50:54.558Z,22.30
2022-10-31T15:53:49.349Z,22.27
2022-10-31T15:56:32.957Z,21.98
2022-10-31T15:59:01.958Z,22.48
2022-10-31T16:01:35.275Z,24.20
2022-10-31T16:04:20.778Z,24.90
2022-10-31T16:07:01.509Z,22.60
2022-10-31T16:09:28.716Z,20.98
2022-10-31T16:11:59.309Z,22.17
2022-10-31T16:14:31.808Z,26.13
2022-10-31T16:17:00.550Z,26.17
2022-10-31T16:19:35.195Z,26.17
2022-10-31T16:22:15.688Z,22.33
2022-10-31T16:25:16.495Z,23.05
2022-10-31T16:27:54.459Z,25.30
2022-10-31T16:30:47.972Z,22.38
2022-10-31T16:33:37.233Z,26.38
2022-10-31T16:36:36.428Z,26.92
2022-10-31T16:39:04.269Z,23.95
2022-10-31T16:41:31.091Z,24.45
2022-10-31T16:43:58.073Z,25.67
2022-10-31T16:46:28.701Z,22.92
2022-10-31T16:48:55.761Z,20.77
2022-10-31T16:51:22.454Z,26.85
2022-10-31T16:53:52.641Z,22.85
2022-10-31T16:56:32.451Z,22.45
2022-10-31T16:59:03.353Z,22.15
2022-10-31T17:01:31.635Z,25.35
2022-10-31T17:03:58.617Z,27.77
2022-10-31T17:06:28.499Z,23.00
2022-10-31T17:08:55.627Z,26.08
2022-10-31T17:11:26.070Z,25.83
2022-10-31T17:13:54.786Z,23.55
2022-10-31T17:16:21.570Z,22.98
2022-10-31T17:18:49.424Z,23.25
2022-10-31T17:21:23.810Z,24.55
2022-10-31T17:23:51.530Z,25.38
2022-10-31T17:26:19.118Z,26.05
2022-10-31T17:28:46.269Z,27.48
2022-10-31T17:31:30.171Z,26.00
2022-10-31T17:34:02.212Z,24.05
2022-10-31T17:36:32.444Z,25.20
2022-10-31T17:38:59.976Z,29.70
2022-10-31T17:41:26.735Z,26.83
2022-10-31T17:43:57.684Z,29.15
2022-10-31T17:46:24.717Z,25.40
2022-10-31T17:48:51.569Z,26.67
2022-10-31T17:51:18.423Z,29.25
2022-10-31T17:53:45.206Z,30.27
2022-10-31T17:56:11.982Z,25.60
2022-10-31T17:58:38.759Z,27.67
2022-10-31T18:01:15.138Z,25.30
2022-10-31T18:03:42.589Z,25.45
2022-10-31T18:06:10.948Z,28.98
2022-10-31T18:08:41.000Z,29.55
2022-10-31T18:11:15.313Z,24.63
2022-10-31T18:13:42.368Z,26.83
2022-10-31T18:16:12.856Z,26.10
2022-10-31T18:18:39.704Z,25.98
2022-10-31T18:21:06.783Z,28.55
2022-10-31T18:23:33.649Z,24.52
2022-10-31T18:26:00.757Z,26.73
2022-10-31T18:28:27.533Z,22.48
2022-10-31T18:30:54.318Z,24.58
2022-10-31T18:33:21.065Z,24.23
2022-10-31T18:35:47.838Z,26.58
2022-10-31T18:38:14.576Z,28.05
2022-10-31T18:40:41.404Z,22.42
2022-10-31T18:43:08.177Z,22.35
2022-10-31T18:45:46.573Z,22.85
2022-10-31T18:48:15.970Z,21.25
2022-10-31T18:50:43.084Z,21.95
2022-10-31T18:53:10.381Z,20.85
2022-10-31T18:55:45.377Z,19.70
2022-10-31T18:58:16.063Z,21.65
2022-10-31T19:00:42.879Z,21.38
2022-10-31T19:03:09.718Z,20.40
2022-10-31T19:05:36.453Z,20.65
2022-10-31T19:08:03.493Z,20.50
2022-10-31T19:10:30.543Z,19.88
2022-10-31T19:12:57.281Z,19.45
2022-10-31T19:15:24.072Z,19.92
2022-10-31T19:17:50.985Z,21.42
2022-10-31T19:20:17.904Z,23.05
2022-10-31T19:22:44.685Z,21.48
2022-10-31T19:25:11.461Z,19.70
2022-10-31T19:27:39.260Z,23.60
2022-10-31T19:30:08.246Z,25.88
2022-10-31T19:32:35.022Z,21.65
2022-10-31T19:35:02.740Z,24.77
2022-10-31T19:37:29.512Z,23.15
2022-10-31T19:39:56.443Z,24.00
2022-10-31T19:42:24.281Z,22.20
2022-10-31T19:44:51.037Z,21.27
2022-10-31T19:47:17.790Z,21.42
2022-10-31T19:49:44.495Z,20.42
2022-10-31T19:52:11.262Z,19.30
2022-10-31T19:54:37.955Z,22.30
2022-10-31T19:57:04.701Z,24.52
2022-10-31T19:59:35.175Z,22.67
2022-10-31T20:02:05.799Z,22.77
2022-10-31T20:04:32.809Z,21.50
2022-10-31T20:06:59.545Z,23.45
2022-10-31T20:09:26.271Z,23.83
2022-10-31T20:11:52.982Z,22.35
2022-10-31T20:14:19.682Z,24.60
2022-10-31T20:16:46.796Z,24.02
2022-10-31T20:19:14.222Z,21.73
2022-10-31T20:21:41.440Z,22.23
2022-10-31T20:24:10.884Z,21.63
2022-10-31T20:26:40.762Z,21.30
2022-10-31T20:29:08.224Z,20.73
2022-10-31T20:31:36.743Z,20.15
2022-10-31T20:34:04.301Z,20.95
2022-10-31T20:36:31.279Z,20.27
2022-10-31T20:38:58.847Z,19.52
2022-10-31T20:41:26.410Z,18.92
2022-10-31T20:43:53.588Z,19.15
2022-10-31T20:46:26.783Z,19.75
2022-10-31T20:48:54.396Z,18.50
2022-10-31T20:51:25.760Z,19.33
2022-10-31T20:53:55.076Z,18.92
2022-10-31T20:56:25.852Z,18.92
2022-10-31T20:58:54.391Z,18.42
2022-10-31T21:01:23.613Z,18.35
2022-10-31T21:03:50.897Z,17.95
2022-10-31T21:06:20.006Z,18.58
2022-10-31T21:08:47.429Z,17.33
2022-10-31T21:11:19.094Z,17.35
2022-10-31T21:13:47.688Z,16.85
2022-10-31T21:16:21.813Z,15.38
2022-10-31T21:18:49.975Z,17.67
2022-10-31T21:21:29.102Z,17.38
2022-10-31T21:24:06.326Z,16.38
2022-10-31T21:26:38.631Z,17.05
2022-10-31T21:29:07.413Z,15.90
2022-10-31T21:31:36.664Z,15.65
2022-10-31T21:34:04.130Z,16.08
2022-10-31T21:36:31.511Z,15.68
2022-10-31T21:38:58.416Z,15.27
2022-10-31T21:41:28.013Z,16.83
2022-10-31T21:43:55.262Z,15.30
2022-10-31T21:46:30.894Z,16.10
2022-10-31T21:48:58.866Z,16.42
2022-10-31T21:51:32.833Z,15.50
2022-10-31T21:54:18.899Z,16.30
2022-10-31T21:56:45.828Z,15.25
2022-10-31T21:59:12.875Z,15.63
2022-10-31T22:01:39.901Z,16.67
2022-10-31T22:04:06.724Z,16.35
2022-10-31T22:06:33.972Z,15.57
2022-10-31T22:09:05.284Z,17.30
2022-10-31T22:11:32.116Z,15.75
2022-10-31T22:14:00.562Z,15.80
2022-10-31T22:16:29.920Z,16.05
2022-10-31T22:18:59.911Z,15.75
2022-10-31T22:21:28.654Z,16.95
2022-10-31T22:24:03.289Z,19.70
2022-10-31T22:26:32.450Z,19.00
2022-10-31T22:29:00.661Z,17.25
2022-10-31T22:31:29.222Z,20.35
2022-10-31T22:33:57.267Z,15.95
2022-10-31T22:36:28.476Z,18.27
2022-10-31T22:38:55.623Z,17.92
2022-10-31T22:41:26.665Z,18.10
2022-10-31T22:43:55.308Z,16.40
2022-10-31T22:46:32.266Z,18.92
2022-10-31T22:49:05.855Z,16.58
2022-10-31T22:51:37.628Z,19.67
2022-10-31T22:54:07.336Z,17.85
2022-10-31T22:56:34.939Z,18.05
2022-10-31T22:59:02.664Z,19.15
2022-10-31T23:01:33.113Z,18.70
2022-10-31T23:04:01.213Z,19.85
2022-10-31T23:06:31.176Z,22.33
2022-10-31T23:09:01.070Z,21.75
2022-10-31T23:11:40.345Z,21.90
2022-10-31T23:14:13.994Z,22.02
2022-10-31T23:19:27.493Z,21.27
2022-10-31T23:22:00.451Z,20.27
2022-10-31T23:24:44.974Z,18.63
2022-10-31T23:29:55.368Z,18.88
2022-10-31T23:32:29.619Z,23.80
2022-10-31T23:35:10.643Z,22.95
2022-10-31T23:37:38.909Z,22.13
2022-10-31T23:40:08.633Z,20.88
2022-10-31T23:42:35.884Z,21.00
2022-10-31T23:45:02.703Z,20.33
2022-10-31T23:47:29.656Z,19.63
2022-10-31T23:49:56.965Z,20.85
2022-10-31T23:52:23.709Z,23.80
2022-10-31T23:54:50.559Z,21.50
2022-10-31T23:57:17.989Z,21.48
2022-10-31T23:59:44.832Z,22.95
